Time;durP1;ratioP1;P1;durP2;ratioP2;P2;SDS_P1;SDS_P2;PMS_P1;PMS_P2;Temp;Humidity;BMP_temperature;BMP_pressure;BME280_temperature;BME280_humidity;BME280_pressure;Samples;Min_cycle;Max_cycle;Signal;HPM_P1;HPM_P2
2021/06/13 00:02:22;;;;;;;5.47;4.82;;;;;;;;;;5093707;28;20113;-58
2021/06/13 00:04:48;;;;;;;6.63;5.50;;;;;;;;;;5093444;28;20473;-58
2021/06/13 00:07:14;;;;;;;6.20;5.30;;;;;;;;;;5093683;28;20031;-58
2021/06/13 00:09:40;;;;;;;7.13;5.45;;;;;;;;;;5093266;28;20059;-59
2021/06/13 00:12:07;;;;;;;6.38;5.00;;;;;;;;;;5093768;28;20013;-59
2021/06/13 00:14:33;;;;;;;6.75;5.80;;;;;;;;;;5093226;28;20028;-59
2021/06/13 00:16:59;;;;;;;6.13;5.47;;;;;;;;;;5093582;28;20024;-58
2021/06/13 00:19:26;;;;;;;6.22;4.95;;;;;;;;;;5092005;28;20020;-58
2021/06/13 00:21:52;;;;;;;5.68;4.55;;;;;;;;;;5094093;28;20031;-59
2021/06/13 00:24:18;;;;;;;6.43;5.18;;;;;;;;;;5093408;28;20054;-58
2021/06/13 00:26:44;;;;;;;7.05;5.50;;;;;;;;;;5093745;28;20095;-59
2021/06/13 00:29:10;;;;;;;5.43;4.55;;;;;;;;;;5094242;28;20108;-59
2021/06/13 00:31:36;;;;;;;7.35;6.15;;;;;;;;;;5098392;28;20024;-59
2021/06/13 00:34:02;;;;;;;6.32;5.03;;;;;;;;;;5098208;28;20060;-58
2021/06/13 00:36:28;;;;;;;7.07;5.35;;;;;;;;;;5097184;28;20518;-59
2021/06/13 00:38:54;;;;;;;6.28;4.93;;;;;;;;;;5097365;28;20020;-58
2021/06/13 00:41:21;;;;;;;9.00;5.60;;;;;;;;;;5096549;28;20032;-58
2021/06/13 00:43:47;;;;;;;7.10;5.57;;;;;;;;;;5097863;28;20126;-58
2021/06/13 00:46:13;;;;;;;8.35;5.93;;;;;;;;;;5097215;28;20446;-58
2021/06/13 00:48:39;;;;;;;7.07;5.03;;;;;;;;;;5097109;28;20055;-58
2021/06/13 00:51:05;;;;;;;7.50;5.57;;;;;;;;;;5096216;28;20058;-58
2021/06/13 00:53:31;;;;;;;5.82;4.15;;;;;;;;;;5096652;28;20028;-58
2021/06/13 00:55:58;;;;;;;6.05;4.65;;;;;;;;;;5096913;28;20111;-58
2021/06/13 00:58:24;;;;;;;7.32;5.07;;;;;;;;;;5096952;28;20109;-58
2021/06/13 01:00:50;;;;;;;10.60;4.32;;;;;;;;;;5097549;28;20039;-58
2021/06/13 01:03:16;;;;;;;5.68;4.43;;;;;;;;;;5096762;28;20377;-58
2021/06/13 01:05:42;;;;;;;5.50;4.65;;;;;;;;;;5096789;28;20444;-58
2021/06/13 01:08:08;;;;;;;7.50;4.68;;;;;;;;;;5096914;28;20123;-57
2021/06/13 01:10:47;;;;;;;6.88;5.43;;;;;;;;;;5097062;28;20096;-58
2021/06/13 01:13:19;;;;;;;4.93;4.43;;;;;;;;;;5097369;28;20027;-58
2021/06/13 01:16:08;;;;;;;5.78;4.65;;;;;;;;;;5096593;28;20081;-58
2021/06/13 01:18:50;;;;;;;8.25;4.65;;;;;;;;;;5058963;28;20032;-59
2021/06/13 01:21:22;;;;;;;5.72;4.30;;;;;;;;;;5097015;28;20035;-58
2021/06/13 01:24:04;;;;;;;7.63;5.35;;;;;;;;;;5096386;28;20029;-58
2021/06/13 01:26:49;;;;;;;7.32;4.72;;;;;;;;;;5096429;28;20024;-58
2021/06/13 01:29:19;;;;;;;9.45;5.60;;;;;;;;;;5096720;28;20020;-58
2021/06/13 01:31:51;;;;;;;6.07;4.63;;;;;;;;;;5096356;28;20036;-58
2021/06/13 01:34:37;;;;;;;5.43;4.68;;;;;;;;;;5096244;28;20063;-58
2021/06/13 01:37:17;;;;;;;6.53;5.18;;;;;;;;;;5096580;28;20051;-58
2021/06/13 01:39:43;;;;;;;6.88;5.15;;;;;;;;;;5096196;28;20020;-58
2021/06/13 01:42:10;;;;;;;8.43;4.72;;;;;;;;;;5096409;28;20021;-58
2021/06/13 01:44:41;;;;;;;5.82;5.22;;;;;;;;;;5095863;28;20020;-58
2021/06/13 01:47:08;;;;;;;6.50;5.18;;;;;;;;;;5095838;28;20139;-58
2021/06/13 01:49:34;;;;;;;5.45;3.95;;;;;;;;;;5094712;28;20074;-58
2021/06/13 01:52:01;;;;;;;5.18;4.68;;;;;;;;;;5096070;28;20027;-58
2021/06/13 01:54:30;;;;;;;8.63;4.60;;;;;;;;;;5096155;28;20528;-58
2021/06/13 01:56:57;;;;;;;7.93;4.72;;;;;;;;;;5094529;28;20016;-58
2021/06/13 01:59:24;;;;;;;5.53;3.78;;;;;;;;;;5095738;28;20106;-58
2021/06/13 02:01:51;;;;;;;6.18;5.20;;;;;;;;;;5094791;28;20123;-58
2021/06/13 02:04:17;;;;;;;7.75;4.45;;;;;;;;;;5095744;28;20063;-58
2021/06/13 02:06:45;;;;;;;6.90;4.55;;;;;;;;;;5096002;28;20415;-58
2021/06/13 02:09:12;;;;;;;5.32;4.35;;;;;;;;;;5095737;28;20040;-58
2021/06/13 02:11:40;;;;;;;4.20;3.78;;;;;;;;;;5096211;28;20349;-58
2021/06/13 02:14:07;;;;;;;5.38;4.63;;;;;;;;;;5096111;28;20035;-58
2021/06/13 02:16:37;;;;;;;7.57;4.78;;;;;;;;;;5094225;28;20088;-58
2021/06/13 02:19:03;;;;;;;6.80;4.45;;;;;;;;;;5095393;28;20369;-58
2021/06/13 02:21:30;;;;;;;7.88;4.80;;;;;;;;;;5096001;28;20027;-58
2021/06/13 02:23:56;;;;;;;6.35;4.40;;;;;;;;;;5095280;28;20028;-58
2021/06/13 02:26:24;;;;;;;7.55;3.95;;;;;;;;;;5095867;28;20024;-58
2021/06/13 02:28:55;;;;;;;10.05;4.65;;;;;;;;;;5095569;28;20059;-58
2021/06/13 02:31:24;;;;;;;6.60;4.28;;;;;;;;;;5095814;28;20028;-58
2021/06/13 02:33:50;;;;;;;5.63;4.55;;;;;;;;;;5094902;28;20082;-58
2021/06/13 02:36:17;;;;;;;5.32;4.30;;;;;;;;;;5094738;28;20024;-58
2021/06/13 02:38:43;;;;;;;5.53;4.78;;;;;;;;;;5095389;28;20031;-58
2021/06/13 02:41:09;;;;;;;6.15;5.40;;;;;;;;;;5095335;28;20020;-58
2021/06/13 02:43:35;;;;;;;5.00;4.25;;;;;;;;;;5094816;28;20035;-58
2021/06/13 02:46:01;;;;;;;5.78;4.75;;;;;;;;;;5094833;28;20081;-58
2021/06/13 02:48:27;;;;;;;12.85;4.88;;;;;;;;;;5094942;28;20063;-58
2021/06/13 02:50:53;;;;;;;5.75;5.15;;;;;;;;;;5094345;28;20401;-58
2021/06/13 02:53:44;;;;;;;5.40;4.43;;;;;;;;;;5094543;28;20024;-58
2021/06/13 02:56:10;;;;;;;;;;;;;;;;;;5095650;28;20484;-58
2021/06/13 02:58:45;;;;;;;6.43;3.78;;;;;;;;;;5094698;28;19904;-58
2021/06/13 03:01:12;;;;;;;6.50;4.13;;;;;;;;;;5093989;28;20070;-58
2021/06/13 03:03:38;;;;;;;4.50;4.10;;;;;;;;;;5093459;28;20073;-58
2021/06/13 03:06:08;;;;;;;5.95;4.53;;;;;;;;;;5094558;28;20431;-58
2021/06/13 03:08:37;;;;;;;7.57;4.53;;;;;;;;;;5094005;28;20481;-58
2021/06/13 03:11:04;;;;;;;5.55;4.70;;;;;;;;;;5094701;28;20472;-58
2021/06/13 03:13:30;;;;;;;6.07;3.53;;;;;;;;;;5095073;28;20028;-58
2021/06/13 03:15:57;;;;;;;4.70;3.55;;;;;;;;;;5093112;28;20031;-58
2021/06/13 03:18:23;;;;;;;10.10;4.78;;;;;;;;;;5094477;28;20105;-58
2021/06/13 03:20:49;;;;;;;4.28;3.35;;;;;;;;;;5092845;28;20035;-58
2021/06/13 03:23:16;;;;;;;4.97;4.25;;;;;;;;;;5094294;28;20040;-58
2021/06/13 03:25:42;;;;;;;7.13;4.50;;;;;;;;;;5094870;28;20051;-58
2021/06/13 03:28:09;;;;;;;5.07;4.18;;;;;;;;;;5093844;28;20103;-58
2021/06/13 03:30:35;;;;;;;4.97;3.70;;;;;;;;;;5094154;28;20103;-58
2021/06/13 03:33:02;;;;;;;10.65;3.50;;;;;;;;;;5093729;28;20374;-58
2021/06/13 03:35:28;;;;;;;4.60;4.10;;;;;;;;;;5094133;28;20028;-58
2021/06/13 03:37:57;;;;;;;7.25;4.18;;;;;;;;;;5094148;28;20020;-58
2021/06/13 03:40:26;;;;;;;5.13;4.28;;;;;;;;;;5094373;28;20020;-58
2021/06/13 03:42:53;;;;;;;6.53;4.10;;;;;;;;;;5094324;28;20107;-58
2021/06/13 03:45:21;;;;;;;4.93;3.92;;;;;;;;;;5093726;28;20534;-58
2021/06/13 03:47:48;;;;;;;5.28;4.53;;;;;;;;;;5094249;28;20115;-58
2021/06/13 03:50:16;;;;;;;8.43;4.60;;;;;;;;;;5093932;28;20425;-58
2021/06/13 03:52:45;;;;;;;5.25;4.30;;;;;;;;;;5094157;28;20024;-58
2021/06/13 03:55:11;;;;;;;5.18;3.88;;;;;;;;;;5093784;28;20017;-58
2021/06/13 03:57:38;;;;;;;7.38;4.05;;;;;;;;;;5094398;28;20327;-58
2021/06/13 04:00:05;;;;;;;7.60;4.43;;;;;;;;;;5093719;28;20480;-58
2021/06/13 04:02:32;;;;;;;4.78;3.58;;;;;;;;;;5093844;28;20043;-58
2021/06/13 04:04:59;;;;;;;4.57;4.05;;;;;;;;;;5095967;28;20024;-58
2021/06/13 04:07:26;;;;;;;7.80;4.22;;;;;;;;;;5097659;28;20024;-58
2021/06/13 04:09:52;;;;;;;6.00;4.22;;;;;;;;;;5096472;28;20044;-58
2021/06/13 04:12:19;;;;;;;6.07;4.28;;;;;;;;;;5098265;28;20031;-58
2021/06/13 04:14:46;;;;;;;5.28;3.70;;;;;;;;;;5097907;28;20111;-58
2021/06/13 04:17:17;;;;;;;8.88;4.10;;;;;;;;;;5097789;28;20522;-58
2021/06/13 04:19:45;;;;;;;3.92;3.53;;;;;;;;;;5097806;28;20024;-58
2021/06/13 04:22:12;;;;;;;5.78;4.20;;;;;;;;;;5098518;28;20404;-58
2021/06/13 04:24:40;;;;;;;4.93;3.42;;;;;;;;;;5097704;28;20103;-58
2021/06/13 04:27:06;;;;;;;4.05;3.38;;;;;;;;;;5096935;28;20424;-58
2021/06/13 04:29:32;;;;;;;5.55;4.03;;;;;;;;;;5098424;28;20346;-58
2021/06/13 04:31:58;;;;;;;6.07;4.22;;;;;;;;;;5096893;28;20031;-58
2021/06/13 04:34:25;;;;;;;5.75;3.42;;;;;;;;;;5097511;28;20378;-58
2021/06/13 04:36:51;;;;;;;6.10;3.63;;;;;;;;;;5096545;28;20061;-58
2021/06/13 04:39:17;;;;;;;5.28;3.55;;;;;;;;;;5097466;28;20016;-58
2021/06/13 04:41:43;;;;;;;4.07;3.53;;;;;;;;;;5097675;28;20031;-58
2021/06/13 04:44:09;;;;;;;5.25;3.53;;;;;;;;;;5079157;28;20495;-58
2021/06/13 04:46:35;;;;;;;5.97;3.83;;;;;;;;;;5097243;28;20031;-58
2021/06/13 04:49:01;;;;;;;4.97;3.65;;;;;;;;;;5096986;28;20117;-58
2021/06/13 04:51:27;;;;;;;4.78;3.75;;;;;;;;;;5097829;28;20016;-58
2021/06/13 04:54:02;;;;;;;5.63;3.83;;;;;;;;;;5095582;28;20024;-58
2021/06/13 04:56:43;;;;;;;5.53;4.03;;;;;;;;;;5097092;28;20020;-58
2021/06/13 04:59:09;;;;;;;9.00;4.50;;;;;;;;;;5096299;28;20470;-58
2021/06/13 05:01:36;;;;;;;10.25;4.13;;;;;;;;;;5097418;28;20055;-58
2021/06/13 05:04:02;;;;;;;7.45;3.78;;;;;;;;;;5096830;28;20040;-58
2021/06/13 05:06:28;;;;;;;8.50;3.88;;;;;;;;;;5097197;28;20047;-58
2021/06/13 05:08:55;;;;;;;4.85;3.72;;;;;;;;;;5096612;28;20390;-58
2021/06/13 05:11:21;;;;;;;4.68;3.83;;;;;;;;;;5095374;28;20016;-58
2021/06/13 05:13:47;;;;;;;5.55;3.78;;;;;;;;;;5096774;28;20480;-58
2021/06/13 05:16:12;;;;;;;6.68;3.88;;;;;;;;;;5095012;28;20077;-58
2021/06/13 05:18:39;;;;;;;6.32;3.83;;;;;;;;;;5096612;28;20069;-58
2021/06/13 05:21:05;;;;;;;5.15;3.55;;;;;;;;;;5096928;28;20020;-58
2021/06/13 05:23:31;;;;;;;7.80;3.83;;;;;;;;;;5096532;28;20070;-58
2021/06/13 05:25:58;;;;;;;5.55;4.03;;;;;;;;;;5095288;28;20525;-58
2021/06/13 05:28:24;;;;;;;4.65;3.67;;;;;;;;;;5096519;28;20012;-58
2021/06/13 05:30:51;;;;;;;3.88;2.92;;;;;;;;;;5096691;28;20031;-58
2021/06/13 05:33:17;;;;;;;4.20;3.15;;;;;;;;;;5096896;28;20370;-58
2021/06/13 05:35:43;;;;;;;12.68;4.10;;;;;;;;;;5096308;28;20073;-58
2021/06/13 05:38:10;;;;;;;5.80;3.78;;;;;;;;;;5096235;28;20068;-58
2021/06/13 05:40:37;;;;;;;3.78;3.00;;;;;;;;;;5096443;28;20024;-58
2021/06/13 05:43:03;;;;;;;4.60;3.50;;;;;;;;;;5094886;28;20039;-58
2021/06/13 05:45:30;;;;;;;4.55;3.00;;;;;;;;;;5096247;28;20063;-58
2021/06/13 05:47:56;;;;;;;6.40;4.35;;;;;;;;;;5096908;28;20024;-58
2021/06/13 05:50:23;;;;;;;5.28;4.05;;;;;;;;;;5096113;28;20051;-58
2021/06/13 05:52:51;;;;;;;4.57;2.88;;;;;;;;;;5096179;28;20041;-58
2021/06/13 05:55:18;;;;;;;6.07;3.53;;;;;;;;;;5095735;28;20466;-58
2021/06/13 05:57:46;;;;;;;7.82;3.15;;;;;;;;;;5095604;28;20485;-58
2021/06/13 06:00:14;;;;;;;6.90;3.47;;;;;;;;;;5095770;28;20461;-58
2021/06/13 06:02:40;;;;;;;7.97;3.50;;;;;;;;;;5096162;28;20040;-58
2021/06/13 06:05:07;;;;;;;5.95;3.78;;;;;;;;;;5095777;28;20024;-58
2021/06/13 06:07:33;;;;;;;5.88;3.75;;;;;;;;;;5094540;28;20058;-58
2021/06/13 06:09:59;;;;;;;4.15;2.85;;;;;;;;;;5094757;28;20040;-58
2021/06/13 06:12:25;;;;;;;6.30;3.60;;;;;;;;;;5096272;28;20020;-58
2021/06/13 06:14:51;;;;;;;4.07;3.28;;;;;;;;;;5096355;28;20047;-58
2021/06/13 06:17:18;;;;;;;5.03;3.03;;;;;;;;;;5095513;28;20044;-58
2021/06/13 06:19:44;;;;;;;5.00;3.17;;;;;;;;;;5095474;28;20101;-58
2021/06/13 06:22:10;;;;;;;5.68;2.55;;;;;;;;;;5095852;28;20038;-58
2021/06/13 06:24:36;;;;;;;6.35;4.05;;;;;;;;;;5095102;28;20032;-58
2021/06/13 06:27:03;;;;;;;4.30;3.08;;;;;;;;;;5094605;28;20016;-58
2021/06/13 06:29:29;;;;;;;6.90;3.50;;;;;;;;;;5096187;28;20097;-58
2021/06/13 06:31:55;;;;;;;5.85;3.78;;;;;;;;;;5095581;28;20020;-58
2021/06/13 06:34:21;;;;;;;10.75;3.35;;;;;;;;;;5094045;28;20028;-58
2021/06/13 06:36:51;;;;;;;3.58;2.35;;;;;;;;;;5095283;28;20034;-58
2021/06/13 06:39:18;;;;;;;5.18;3.10;;;;;;;;;;5095155;28;20020;-58
2021/06/13 06:41:45;;;;;;;3.13;2.65;;;;;;;;;;5095447;28;20035;-58
2021/06/13 06:44:11;;;;;;;4.72;3.00;;;;;;;;;;5094948;28;20036;-58
2021/06/13 06:46:37;;;;;;;4.75;3.28;;;;;;;;;;5095570;28;20035;-58
2021/06/13 06:49:04;;;;;;;7.65;3.30;;;;;;;;;;5094960;28;20024;-58
2021/06/13 06:51:30;;;;;;;6.10;3.80;;;;;;;;;;5095544;28;20031;-58
2021/06/13 06:53:57;;;;;;;11.13;3.33;;;;;;;;;;5094961;28;20365;-57
2021/06/13 06:56:24;;;;;;;4.72;3.22;;;;;;;;;;5093180;28;20032;-57
2021/06/13 06:58:50;;;;;;;6.15;3.45;;;;;;;;;;5093479;28;20118;-58
2021/06/13 07:01:17;;;;;;;4.70;2.95;;;;;;;;;;5094039;28;20020;-58
2021/06/13 07:03:43;;;;;;;4.57;3.55;;;;;;;;;;5094637;28;20100;-57
2021/06/13 07:06:09;;;;;;;4.40;2.50;;;;;;;;;;5095251;28;20031;-58
2021/06/13 07:08:35;;;;;;;7.95;4.13;;;;;;;;;;5093274;28;20131;-58
2021/06/13 07:11:01;;;;;;;5.43;3.20;;;;;;;;;;5094903;28;20023;-58
2021/06/13 07:13:27;;;;;;;3.58;2.70;;;;;;;;;;5094830;28;20020;-58
2021/06/13 07:15:53;;;;;;;4.72;3.15;;;;;;;;;;5094404;28;20020;-57
2021/06/13 07:18:19;;;;;;;7.53;4.07;;;;;;;;;;5093346;28;20473;-58
2021/06/13 07:20:45;;;;;;;6.43;3.40;;;;;;;;;;5094687;28;20051;-58
2021/06/13 07:23:11;;;;;;;7.43;3.72;;;;;;;;;;5094154;28;20462;-58
2021/06/13 07:25:37;;;;;;;6.90;3.72;;;;;;;;;;5094281;28;20031;-58
2021/06/13 07:28:05;;;;;;;3.92;3.38;;;;;;;;;;5092682;28;20027;-58
2021/06/13 07:30:31;;;;;;;4.47;3.55;;;;;;;;;;5094676;28;20024;-58
2021/06/13 07:32:57;;;;;;;5.10;3.67;;;;;;;;;;5094022;28;20024;-58
2021/06/13 07:35:25;;;;;;;5.15;3.65;;;;;;;;;;5094329;28;20022;-58
2021/06/13 07:37:51;;;;;;;6.75;3.50;;;;;;;;;;5092602;28;20020;-58
2021/06/13 07:40:19;;;;;;;8.18;4.13;;;;;;;;;;5092729;28;20480;-58
2021/06/13 07:42:45;;;;;;;4.78;2.78;;;;;;;;;;5094253;28;20024;-58
2021/06/13 07:45:12;;;;;;;8.32;3.55;;;;;;;;;;5094872;28;20031;-58
2021/06/13 07:47:38;;;;;;;8.48;3.30;;;;;;;;;;5092930;28;20399;-58
2021/06/13 07:50:06;;;;;;;5.28;4.15;;;;;;;;;;5093861;28;20020;-58
2021/06/13 07:52:32;;;;;;;5.63;3.22;;;;;;;;;;5094072;28;20031;-58
2021/06/13 07:54:58;;;;;;;4.18;3.03;;;;;;;;;;5094031;28;20029;-58
2021/06/13 07:57:24;;;;;;;4.35;3.45;;;;;;;;;;5093892;28;20107;-58
2021/06/13 07:59:50;;;;;;;5.30;3.38;;;;;;;;;;5093764;28;20047;-59
2021/06/13 08:02:16;;;;;;;5.22;3.30;;;;;;;;;;5093374;28;20024;-58
2021/06/13 08:05:08;;;;;;;5.22;3.47;;;;;;;;;;5093382;28;20485;-58
2021/06/13 08:07:28;;;;;;;7.68;3.65;;;;;;;;;;5094093;28;20454;-58
2021/06/13 08:09:55;;;;;;;5.15;3.50;;;;;;;;;;5092449;28;20079;-58
2021/06/13 08:12:21;;;;;;;5.43;3.97;;;;;;;;;;5093311;28;20063;-59
2021/06/13 08:14:47;;;;;;;6.47;3.67;;;;;;;;;;5093689;28;20024;-58
2021/06/13 08:17:13;;;;;;;5.55;4.22;;;;;;;;;;5093844;28;20488;-58
2021/06/13 08:19:39;;;;;;;4.50;3.47;;;;;;;;;;5094044;28;20040;-58
2021/06/13 08:22:05;;;;;;;5.20;3.45;;;;;;;;;;5093299;28;20530;-59
2021/06/13 08:24:32;;;;;;;3.72;3.28;;;;;;;;;;5075467;28;20060;-59
2021/06/13 08:27:01;;;;;;;5.13;2.95;;;;;;;;;;5093770;28;20069;-59
2021/06/13 08:29:26;;;;;;;6.63;3.35;;;;;;;;;;5092415;28;20099;-59
2021/06/13 08:31:53;;;;;;;6.10;4.00;;;;;;;;;;5092801;28;20051;-59
2021/06/13 08:34:19;;;;;;;5.47;3.13;;;;;;;;;;5075285;28;20473;-59
2021/06/13 08:36:45;;;;;;;4.40;3.38;;;;;;;;;;5093576;28;20028;-59
2021/06/13 08:39:13;;;;;;;12.45;3.25;;;;;;;;;;5093299;28;20103;-59
2021/06/13 08:41:39;;;;;;;5.80;3.22;;;;;;;;;;5092744;28;20051;-60
2021/06/13 08:44:08;;;;;;;5.55;2.63;;;;;;;;;;5093498;28;20028;-59
2021/06/13 08:46:37;;;;;;;5.25;3.53;;;;;;;;;;5093362;28;20037;-59
2021/06/13 08:49:03;;;;;;;4.20;3.00;;;;;;;;;;5093101;28;20028;-60
2021/06/13 08:51:29;;;;;;;6.68;3.58;;;;;;;;;;5096878;28;20355;-60
2021/06/13 08:53:55;;;;;;;4.13;3.08;;;;;;;;;;5096989;28;20023;-59
2021/06/13 08:56:22;;;;;;;7.25;3.13;;;;;;;;;;5097007;28;20052;-59
2021/06/13 08:58:49;;;;;;;6.13;2.97;;;;;;;;;;5097399;28;20338;-59
2021/06/13 09:01:15;;;;;;;3.88;2.72;;;;;;;;;;5096650;28;20072;-59
2021/06/13 09:03:42;;;;;;;4.22;3.33;;;;;;;;;;5096716;28;20036;-59
2021/06/13 09:06:09;;;;;;;6.70;3.08;;;;;;;;;;5097102;28;20028;-59
2021/06/13 09:08:35;;;;;;;9.05;3.65;;;;;;;;;;5095363;28;20048;-59
2021/06/13 09:11:01;;;;;;;3.60;2.72;;;;;;;;;;5095925;28;20054;-59
2021/06/13 09:13:29;;;;;;;6.30;4.00;;;;;;;;;;5097484;28;20028;-59
2021/06/13 09:15:57;;;;;;;5.88;4.40;;;;;;;;;;5096905;28;20099;-59
2021/06/13 09:18:29;;;;;;;5.78;3.75;;;;;;;;;;5096954;28;20107;-59
2021/06/13 09:20:55;;;;;;;4.63;3.28;;;;;;;;;;5096701;28;20563;-59
2021/06/13 09:23:21;;;;;;;5.25;3.72;;;;;;;;;;5096323;28;20032;-59
2021/06/13 09:25:48;;;;;;;5.70;4.05;;;;;;;;;;5096886;28;20027;-59
2021/06/13 09:28:21;;;;;;;5.07;4.03;;;;;;;;;;5096855;28;20020;-59
2021/06/13 09:30:51;;;;;;;4.88;3.20;;;;;;;;;;5096284;28;20028;-59
2021/06/13 09:33:28;;;;;;;4.78;3.47;;;;;;;;;;5096658;28;20035;-59
2021/06/13 09:35:56;;;;;;;6.40;4.13;;;;;;;;;;5097073;28;20140;-59
2021/06/13 09:38:32;;;;;;;3.90;2.90;;;;;;;;;;5095001;28;20077;-59
2021/06/13 09:41:01;;;;;;;7.55;3.42;;;;;;;;;;5096072;28;20370;-59
2021/06/13 09:43:32;;;;;;;4.68;3.13;;;;;;;;;;5095811;28;20055;-59
2021/06/13 09:46:24;;;;;;;5.90;3.05;;;;;;;;;;5095858;28;20028;-59
2021/06/13 09:48:59;;;;;;;4.82;2.47;;;;;;;;;;5092167;28;20086;-59
2021/06/13 09:51:32;;;;;;;5.78;3.67;;;;;;;;;;5095395;28;20319;-59
2021/06/13 09:53:59;;;;;;;5.47;3.05;;;;;;;;;;5095137;28;20028;-59
2021/06/13 09:56:31;;;;;;;4.55;2.75;;;;;;;;;;5095814;28;20059;-60
2021/06/13 09:58:57;;;;;;;4.10;3.03;;;;;;;;;;5095866;28;20036;-59
2021/06/13 10:01:25;;;;;;;3.35;2.67;;;;;;;;;;5095101;28;20107;-60
2021/06/13 10:03:52;;;;;;;6.82;3.33;;;;;;;;;;5095305;28;20366;-59
2021/06/13 10:06:19;;;;;;;4.55;2.90;;;;;;;;;;5094928;28;20021;-59
2021/06/13 10:08:45;;;;;;;5.65;2.28;;;;;;;;;;5095439;28;20079;-60
2021/06/13 10:11:11;;;;;;;3.97;2.25;;;;;;;;;;5096012;28;20112;-60
2021/06/13 10:13:38;;;;;;;3.45;2.50;;;;;;;;;;5095447;28;20539;-60
2021/06/13 10:16:04;;;;;;;3.78;1.98;;;;;;;;;;5095311;28;20020;-59
2021/06/13 10:18:30;;;;;;;5.50;2.03;;;;;;;;;;5095387;28;20412;-59
2021/06/13 10:21:13;;;;;;;3.75;2.40;;;;;;;;;;5095669;28;20016;-59
2021/06/13 10:23:45;;;;;;;4.35;2.42;;;;;;;;;;5095199;28;20050;-60
2021/06/13 10:26:11;;;;;;;3.88;2.20;;;;;;;;;;5094369;28;20020;-59
2021/06/13 10:28:37;;;;;;;4.75;2.97;;;;;;;;;;5095915;28;20025;-59
2021/06/13 10:31:04;;;;;;;2.30;1.88;;;;;;;;;;5094128;28;20101;-59
2021/06/13 10:33:30;;;;;;;4.00;2.60;;;;;;;;;;5095218;28;20036;-59
2021/06/13 10:36:00;;;;;;;2.53;2.05;;;;;;;;;;5095056;28;20025;-59
2021/06/13 10:38:26;;;;;;;2.97;2.17;;;;;;;;;;5095137;28;20020;-60
2021/06/13 10:40:52;;;;;;;2.92;2.15;;;;;;;;;;5095357;28;20029;-60
2021/06/13 10:43:23;;;;;;;4.43;2.92;;;;;;;;;;5094973;28;20039;-58
2021/06/13 10:45:49;;;;;;;;;;;;;;;;;;5094725;28;20449;-57
2021/06/13 10:48:15;;;;;;;3.40;2.03;;;;;;;;;;5094777;28;19911;-57
2021/06/13 10:50:41;;;;;;;3.17;1.85;;;;;;;;;;5095073;28;20096;-57
2021/06/13 10:53:09;;;;;;;2.75;2.15;;;;;;;;;;5095145;28;20349;-57
2021/06/13 10:55:48;;;;;;;9.20;2.97;;;;;;;;;;5094681;28;20020;-59
2021/06/13 10:58:33;;;;;;;4.78;2.15;;;;;;;;;;5094776;28;20012;-58
2021/06/13 11:01:28;;;;;;;5.03;2.47;;;;;;;;;;5094791;28;20039;-58
2021/06/13 11:04:06;;;;;;;2.83;2.08;;;;;;;;;;5072807;28;20359;-58
2021/06/13 11:06:45;;;;;;;3.55;1.90;;;;;;;;;;5094571;28;20024;-58
2021/06/13 11:09:14;;;;;;;5.00;2.50;;;;;;;;;;5094552;28;20076;-58
2021/06/13 11:11:42;;;;;;;2.78;2.17;;;;;;;;;;5094615;28;20020;-58
2021/06/13 11:14:27;;;;;;;3.65;2.33;;;;;;;;;;5094145;28;20481;-58
2021/06/13 11:16:53;;;;;;;4.15;2.30;;;;;;;;;;5094614;28;20115;-58
2021/06/13 11:19:28;;;;;;;5.00;2.38;;;;;;;;;;5094683;28;20323;-58
2021/06/13 11:22:13;;;;;;;3.22;2.60;;;;;;;;;;5095010;28;20089;-58
2021/06/13 11:24:45;;;;;;;3.00;1.83;;;;;;;;;;5094189;28;20032;-58
2021/06/13 11:27:11;;;;;;;2.67;1.83;;;;;;;;;;5094850;28;20027;-58
2021/06/13 11:29:53;;;;;;;6.45;2.35;;;;;;;;;;5094829;28;20024;-58
2021/06/13 11:32:46;;;;;;;6.20;2.65;;;;;;;;;;5094532;28;20114;-57
2021/06/13 11:35:24;;;;;;;5.72;2.20;;;;;;;;;;5090656;28;20024;-54
2021/06/13 11:38:13;;;;;;;6.25;2.22;;;;;;;;;;5094062;28;20507;-57
2021/06/13 11:40:47;;;;;;;3.90;2.53;;;;;;;;;;5094657;28;20055;-57
2021/06/13 11:43:14;;;;;;;4.57;1.90;;;;;;;;;;5094564;28;20032;-55
2021/06/13 11:45:56;;;;;;;3.63;2.40;;;;;;;;;;5094506;28;20024;-56
2021/06/13 11:48:24;;;;;;;4.30;1.83;;;;;;;;;;5094178;28;20107;-57
2021/06/13 11:51:09;;;;;;;6.25;2.20;;;;;;;;;;5093879;28;20024;-56
2021/06/13 11:53:55;;;;;;;3.00;2.00;;;;;;;;;;5094126;28;20020;-57
2021/06/13 11:59:05;;;;;;;3.95;1.92;;;;;;;;;;5093759;28;20607;-56
2021/06/13 12:01:36;;;;;;;2.20;1.40;;;;;;;;;;5093888;28;20013;-57
2021/06/13 12:04:03;;;;;;;1.88;1.27;;;;;;;;;;5093436;28;20473;-57
2021/06/13 12:06:30;;;;;;;2.60;1.75;;;;;;;;;;5093316;28;20377;-57
2021/06/13 12:08:58;;;;;;;5.30;2.65;;;;;;;;;;5094083;28;20124;-57
2021/06/13 12:11:35;;;;;;;5.32;2.85;;;;;;;;;;5093980;28;20028;-56
2021/06/13 12:14:33;;;;;;;5.13;2.20;;;;;;;;;;5092508;28;20112;-57
2021/06/13 12:17:01;;;;;;;3.22;2.00;;;;;;;;;;5077906;28;20040;-57
2021/06/13 12:19:35;;;;;;;3.00;2.05;;;;;;;;;;5093389;28;20028;-56
2021/06/13 12:22:14;;;;;;;5.68;2.58;;;;;;;;;;5094019;28;20028;-57
2021/06/13 12:27:22;;;;;;;3.20;2.00;;;;;;;;;;5096392;28;20111;-57
2021/06/13 12:29:59;;;;;;;3.20;2.05;;;;;;;;;;5098202;28;20407;-57
2021/06/13 12:32:25;;;;;;;5.75;2.05;;;;;;;;;;5097651;28;20020;-56
2021/06/13 12:35:04;;;;;;;3.83;1.80;;;;;;;;;;5096339;28;20533;-56
2021/06/13 12:37:33;;;;;;;2.70;2.00;;;;;;;;;;5097778;28;20477;-56
2021/06/13 12:39:59;;;;;;;5.15;2.08;;;;;;;;;;5097711;28;20020;-56
2021/06/13 12:42:25;;;;;;;2.97;2.00;;;;;;;;;;5097376;28;20488;-57
2021/06/13 12:44:59;;;;;;;2.67;1.90;;;;;;;;;;5097273;28;20028;-56
2021/06/13 12:47:25;;;;;;;2.78;1.52;;;;;;;;;;5097580;28;20392;-56
2021/06/13 12:49:53;;;;;;;2.70;1.70;;;;;;;;;;5097238;28;20016;-58
2021/06/13 12:52:19;;;;;;;5.40;1.60;;;;;;;;;;5097037;28;20519;-57
2021/06/13 12:54:53;;;;;;;2.25;1.50;;;;;;;;;;5097243;28;20426;-57
2021/06/13 12:57:20;;;;;;;4.82;1.45;;;;;;;;;;5095841;28;20062;-57
2021/06/13 12:59:47;;;;;;;2.67;1.45;;;;;;;;;;5097376;28;20020;-56
2021/06/13 13:02:14;;;;;;;2.72;1.48;;;;;;;;;;5096571;28;20493;-56
2021/06/13 13:04:48;;;;;;;3.42;1.00;;;;;;;;;;5095536;28;20122;-58
2021/06/13 13:07:26;;;;;;;2.70;1.27;;;;;;;;;;5097065;28;20031;-58
2021/06/13 13:10:04;;;;;;;4.07;2.30;;;;;;;;;;5095227;28;20048;-57
2021/06/13 13:12:30;;;;;;;3.40;1.73;;;;;;;;;;5097049;28;20024;-57
2021/06/13 13:15:16;;;;;;;3.15;1.80;;;;;;;;;;5096751;28;20107;-57
2021/06/13 13:17:43;;;;;;;3.90;2.17;;;;;;;;;;5097398;28;20016;-57
2021/06/13 13:20:36;;;;;;;2.65;1.90;;;;;;;;;;5097311;28;20525;-58
2021/06/13 13:23:09;;;;;;;2.55;1.85;;;;;;;;;;5092957;28;20086;-56
2021/06/13 13:25:38;;;;;;;2.90;2.20;;;;;;;;;;5097085;28;20020;-57
2021/06/13 13:28:22;;;;;;;6.63;2.05;;;;;;;;;;5096547;28;20092;-56
2021/06/13 13:30:49;;;;;;;3.22;1.85;;;;;;;;;;5097038;28;20044;-58
2021/06/13 13:33:15;;;;;;;4.07;1.70;;;;;;;;;;5096487;28;20103;-58
2021/06/13 13:35:44;;;;;;;6.28;1.90;;;;;;;;;;5096365;28;20024;-58
2021/06/13 13:38:15;;;;;;;8.38;2.10;;;;;;;;;;5096292;28;20026;-56
2021/06/13 13:40:41;;;;;;;7.25;2.65;;;;;;;;;;5096937;28;20030;-57
2021/06/13 13:43:12;;;;;;;4.25;1.83;;;;;;;;;;5096144;28;20079;-57
2021/06/13 13:45:40;;;;;;;2.58;1.65;;;;;;;;;;5095891;28;20016;-58
2021/06/13 13:48:10;;;;;;;2.10;1.63;;;;;;;;;;5096214;28;20165;-58
2021/06/13 13:50:36;;;;;;;;;;;;;;;;;;5097193;28;20444;-58
2021/06/13 13:53:19;;;;;;;3.15;1.75;;;;;;;;;;5096202;28;19988;-57
2021/06/13 13:55:46;;;;;;;3.63;2.38;;;;;;;;;;5095964;28;20069;-58
2021/06/13 13:58:12;;;;;;;2.85;1.67;;;;;;;;;;5096248;28;20406;-58
2021/06/13 14:00:38;;;;;;;3.47;1.98;;;;;;;;;;5096431;28;20116;-58
2021/06/13 14:03:04;;;;;;;3.20;1.83;;;;;;;;;;5095841;28;20032;-58
2021/06/13 14:05:30;;;;;;;2.42;1.60;;;;;;;;;;5096425;28;20020;-58
2021/06/13 14:07:56;;;;;;;4.85;1.90;;;;;;;;;;5095740;28;20023;-58
2021/06/13 14:10:22;;;;;;;3.95;2.00;;;;;;;;;;5096330;28;20093;-58
2021/06/13 14:12:48;;;;;;;3.28;1.70;;;;;;;;;;5096457;28;20097;-57
2021/06/13 14:15:15;;;;;;;3.35;1.88;;;;;;;;;;5095657;28;20450;-58
2021/06/13 14:17:41;;;;;;;5.32;2.00;;;;;;;;;;5095345;28;20028;-58
2021/06/13 14:20:07;;;;;;;1.77;1.25;;;;;;;;;;5095635;28;20027;-58
2021/06/13 14:22:33;;;;;;;2.42;1.77;;;;;;;;;;5094821;28;20028;-59
2021/06/13 14:24:59;;;;;;;3.40;1.70;;;;;;;;;;5095514;28;20089;-59
2021/06/13 14:27:25;;;;;;;4.40;1.60;;;;;;;;;;5095358;28;20020;-58
2021/06/13 14:29:51;;;;;;;2.67;1.55;;;;;;;;;;5095400;28;20103;-59
2021/06/13 14:32:17;;;;;;;3.05;1.55;;;;;;;;;;5095749;28;20031;-58
2021/06/13 14:34:43;;;;;;;2.60;1.40;;;;;;;;;;5095541;28;20024;-58
2021/06/13 14:37:10;;;;;;;2.08;1.25;;;;;;;;;;5095222;28;20024;-58
2021/06/13 14:39:37;;;;;;;2.58;1.52;;;;;;;;;;5095308;28;20024;-57
2021/06/13 14:42:03;;;;;;;2.78;1.95;;;;;;;;;;5095167;28;20020;-58
2021/06/13 14:44:29;;;;;;;2.45;1.55;;;;;;;;;;5095323;28;20031;-57
2021/06/13 14:46:55;;;;;;;3.42;1.58;;;;;;;;;;5095144;28;20026;-58
2021/06/13 14:49:21;;;;;;;3.42;1.45;;;;;;;;;;5094343;28;20024;-57
2021/06/13 14:51:47;;;;;;;2.17;1.25;;;;;;;;;;5095289;28;20354;-58
2021/06/13 14:54:13;;;;;;;2.55;1.90;;;;;;;;;;5095042;28;20035;-58
2021/06/13 14:56:39;;;;;;;3.10;1.35;;;;;;;;;;5094828;28;20442;-58
2021/06/13 14:59:05;;;;;;;2.78;1.88;;;;;;;;;;5095113;28;20052;-57